createdAt,value
2018-03-18T00:02:16.664Z,14.25
2018-03-18T00:04:44.092Z,16.85
2018-03-18T00:07:12.292Z,16.00
2018-03-18T00:09:39.765Z,15.43
2018-03-18T00:12:07.208Z,16.08
2018-03-18T00:14:35.420Z,14.50
2018-03-18T00:17:02.860Z,16.40
2018-03-18T00:19:30.318Z,16.40
2018-03-18T00:21:57.696Z,14.90
2018-03-18T00:24:25.899Z,15.32
2018-03-18T00:26:53.323Z,15.30
2018-03-18T00:29:20.855Z,14.23
2018-03-18T00:31:48.280Z,13.73
2018-03-18T00:34:15.796Z,14.95
2018-03-18T00:36:43.222Z,14.00
2018-03-18T00:39:10.735Z,14.57
2018-03-18T00:41:38.159Z,13.75
2018-03-18T00:44:05.623Z,14.63
2018-03-18T00:46:33.143Z,12.95
2018-03-18T00:49:00.580Z,14.07
2018-03-18T00:51:40.732Z,14.68
2018-03-18T00:54:08.200Z,13.90
2018-03-18T00:56:35.584Z,13.43
2018-03-18T00:59:03.020Z,14.68
2018-03-18T01:01:30.459Z,14.50
2018-03-18T01:03:57.887Z,14.43
2018-03-18T01:06:25.308Z,13.85
2018-03-18T01:08:52.775Z,14.57
2018-03-18T01:11:20.191Z,14.15
2018-03-18T01:13:47.705Z,14.10
2018-03-18T01:16:15.136Z,14.27
2018-03-18T01:18:42.555Z,14.02
2018-03-18T01:21:10.016Z,13.38
2018-03-18T01:23:37.479Z,13.88
2018-03-18T01:26:04.911Z,14.63
2018-03-18T01:28:32.336Z,14.32
2018-03-18T01:30:59.774Z,14.35
2018-03-18T01:33:27.980Z,14.40
2018-03-18T01:35:55.412Z,15.13
2018-03-18T01:38:23.648Z,13.43
2018-03-18T01:40:51.084Z,14.18
2018-03-18T01:43:19.268Z,14.55
2018-03-18T01:45:47.463Z,15.23
2018-03-18T01:48:14.948Z,14.75
2018-03-18T01:50:42.419Z,14.18
2018-03-18T01:53:22.600Z,14.73
2018-03-18T01:55:50.042Z,14.87
2018-03-18T01:58:18.251Z,15.98
2018-03-18T02:00:45.711Z,14.93
2018-03-18T02:03:13.138Z,15.63
2018-03-18T02:05:40.560Z,15.80
2018-03-18T02:08:08.023Z,16.27
2018-03-18T02:10:35.447Z,15.93
2018-03-18T02:13:02.960Z,15.48
2018-03-18T02:15:30.427Z,14.32
2018-03-18T02:17:57.892Z,15.98
2018-03-18T02:20:25.370Z,14.73
2018-03-18T02:22:52.784Z,15.60
2018-03-18T02:25:20.208Z,16.45
2018-03-18T02:27:47.679Z,15.38
2018-03-18T02:30:15.105Z,16.60
2018-03-18T02:32:42.542Z,16.52
2018-03-18T02:35:10.006Z,16.45
2018-03-18T02:37:37.431Z,16.48
2018-03-18T02:40:05.615Z,16.55
2018-03-18T02:42:33.808Z,15.20
2018-03-18T02:45:01.305Z,16.27
2018-03-18T02:47:28.768Z,16.48
2018-03-18T02:49:57.166Z,15.88
2018-03-18T02:52:24.588Z,16.30
2018-03-18T02:54:52.101Z,15.85
2018-03-18T02:57:19.673Z,16.02
2018-03-18T02:59:47.089Z,16.02
2018-03-18T03:02:14.614Z,16.20
2018-03-18T03:04:42.046Z,15.75
2018-03-18T03:07:09.465Z,16.55
2018-03-18T03:09:36.920Z,15.75
2018-03-18T03:12:04.348Z,16.15
2018-03-18T03:14:31.869Z,15.23
2018-03-18T03:16:59.301Z,16.30
2018-03-18T03:19:27.516Z,15.60
2018-03-18T03:21:54.944Z,17.02
2018-03-18T03:24:22.460Z,15.07
2018-03-18T03:26:49.883Z,15.48
2018-03-18T03:29:17.395Z,15.43
2018-03-18T03:31:44.827Z,15.27
2018-03-18T03:34:12.382Z,15.02
2018-03-18T03:36:39.810Z,15.80
2018-03-18T03:39:07.376Z,16.00
2018-03-18T03:41:34.844Z,15.25
2018-03-18T03:44:02.316Z,15.57
2018-03-18T03:46:29.752Z,16.77
2018-03-18T03:48:59.000Z,14.57
2018-03-18T03:51:26.467Z,15.40
2018-03-18T03:53:53.894Z,15.20
2018-03-18T03:56:21.407Z,14.82
2018-03-18T03:58:48.828Z,15.77
2018-03-18T04:01:16.348Z,15.05
2018-03-18T04:03:43.776Z,15.02
2018-03-18T04:06:11.216Z,15.57
2018-03-18T04:08:38.639Z,14.70
2018-03-18T04:11:06.124Z,14.55
2018-03-18T04:13:33.556Z,13.88
2018-03-18T04:16:01.744Z,14.63
2018-03-18T04:18:30.172Z,14.45
2018-03-18T04:20:57.600Z,14.87
2018-03-18T04:23:25.032Z,14.90
2018-03-18T04:25:52.480Z,14.93
2018-03-18T04:28:19.952Z,14.50
2018-03-18T04:30:47.372Z,15.65
2018-03-18T04:33:14.887Z,14.93
2018-03-18T04:35:42.319Z,13.70
2018-03-18T04:38:09.748Z,14.15
2018-03-18T04:40:37.709Z,13.65
2018-03-18T04:43:05.125Z,14.45
2018-03-18T04:45:32.652Z,14.80
2018-03-18T04:48:00.088Z,14.98
2018-03-18T04:50:28.288Z,14.93
2018-03-18T04:52:55.720Z,13.95
2018-03-18T04:55:23.243Z,14.05
2018-03-18T04:57:50.676Z,14.18
2018-03-18T05:00:18.860Z,14.32
2018-03-18T05:02:46.296Z,13.65
2018-03-18T05:05:13.719Z,14.43
2018-03-18T05:07:42.028Z,14.27
2018-03-18T05:10:09.500Z,13.82
2018-03-18T05:12:36.960Z,12.70
2018-03-18T05:15:04.401Z,14.43
2018-03-18T05:17:31.816Z,14.85
2018-03-18T05:19:59.276Z,13.20
2018-03-18T05:22:26.704Z,13.52
2018-03-18T05:24:54.131Z,13.85
2018-03-18T05:27:21.561Z,14.05
2018-03-18T05:29:49.780Z,13.57
2018-03-18T05:32:17.205Z,13.45
2018-03-18T05:34:45.406Z,14.27
2018-03-18T05:37:13.591Z,13.82
2018-03-18T05:39:41.794Z,13.32
2018-03-18T05:42:09.212Z,13.52
2018-03-18T05:44:38.203Z,13.27
2018-03-18T05:47:05.629Z,13.57
2018-03-18T05:49:33.122Z,12.68
2018-03-18T05:52:00.546Z,12.95
2018-03-18T05:54:28.744Z,14.00
2018-03-18T05:56:56.935Z,13.50
2018-03-18T05:59:25.133Z,13.85
2018-03-18T06:01:52.559Z,12.82
2018-03-18T06:04:20.004Z,12.63
2018-03-18T06:06:47.429Z,12.48
2018-03-18T06:09:15.635Z,12.68
2018-03-18T06:11:43.108Z,13.32
2018-03-18T06:14:10.580Z,13.10
2018-03-18T06:16:38.016Z,12.77
2018-03-18T06:19:06.215Z,13.45
2018-03-18T06:21:34.408Z,13.13
2018-03-18T06:24:01.886Z,12.65
2018-03-18T06:26:30.076Z,14.23
2018-03-18T06:28:57.504Z,12.63
2018-03-18T06:31:25.025Z,13.43
2018-03-18T06:33:52.439Z,13.55
2018-03-18T06:36:19.956Z,14.02
2018-03-18T06:38:47.379Z,12.40
2018-03-18T06:41:14.900Z,12.60
2018-03-18T06:43:42.320Z,12.65
2018-03-18T06:46:09.845Z,12.85
2018-03-18T06:48:37.275Z,13.57
2018-03-18T06:51:05.463Z,13.55
2018-03-18T06:53:33.664Z,13.50
2018-03-18T06:56:01.146Z,12.27
2018-03-18T06:58:28.586Z,13.00
2018-03-18T07:00:56.808Z,13.02
2018-03-18T07:03:24.272Z,14.32
2018-03-18T07:05:52.157Z,13.13
2018-03-18T07:08:19.588Z,12.05
2018-03-18T07:10:47.779Z,12.90
2018-03-18T07:13:16.003Z,12.85
2018-03-18T07:15:43.472Z,13.48
2018-03-18T07:18:10.912Z,12.75
2018-03-18T07:20:39.124Z,12.20
2018-03-18T07:23:06.603Z,13.02
2018-03-18T07:25:34.100Z,12.18
2018-03-18T07:28:02.227Z,12.75
2018-03-18T07:30:30.417Z,13.20
2018-03-18T07:32:58.611Z,12.02
2018-03-18T07:35:26.100Z,12.15
2018-03-18T07:37:53.560Z,12.13
2018-03-18T07:40:21.033Z,11.98
2018-03-18T07:42:48.504Z,11.95
2018-03-18T07:45:15.940Z,10.90
2018-03-18T07:47:44.136Z,12.43
2018-03-18T07:50:12.331Z,12.02
2018-03-18T07:52:39.756Z,11.65
2018-03-18T07:55:07.192Z,11.20
2018-03-18T07:57:34.663Z,12.07
2018-03-18T08:00:02.096Z,11.07
2018-03-18T08:02:30.292Z,11.57
2018-03-18T08:04:58.496Z,11.20
2018-03-18T08:07:25.925Z,12.00
2018-03-18T08:09:54.859Z,11.27
2018-03-18T08:12:22.284Z,10.27
2018-03-18T08:14:49.717Z,11.50
2018-03-18T08:17:17.147Z,11.10
2018-03-18T08:19:44.579Z,11.52
2018-03-18T08:22:12.023Z,12.18
2018-03-18T08:24:39.451Z,10.70
2018-03-18T08:27:07.675Z,10.45
2018-03-18T08:29:35.144Z,11.57
2018-03-18T08:32:02.571Z,10.45
2018-03-18T08:34:30.004Z,10.98
2018-03-18T08:36:57.433Z,10.88
2018-03-18T08:39:24.868Z,11.50
2018-03-18T08:41:52.292Z,11.07
2018-03-18T08:44:19.715Z,11.50
2018-03-18T08:46:47.283Z,11.07
2018-03-18T08:49:14.664Z,10.93
2018-03-18T08:51:42.884Z,9.55
2018-03-18T08:54:10.307Z,10.82
2018-03-18T08:56:37.766Z,11.12
2018-03-18T08:59:05.181Z,10.73
2018-03-18T09:01:32.611Z,10.15
2018-03-18T09:04:00.040Z,10.88
2018-03-18T09:06:27.472Z,10.13
2018-03-18T09:08:55.664Z,11.82
2018-03-18T09:11:23.881Z,11.45
2018-03-18T09:13:51.320Z,12.35
2018-03-18T09:16:19.532Z,11.48
2018-03-18T09:18:46.952Z,9.35
2018-03-18T09:21:14.392Z,9.63
2018-03-18T09:23:41.840Z,9.38
2018-03-18T09:26:09.318Z,8.90
2018-03-18T09:28:36.781Z,9.15
2018-03-18T09:31:04.203Z,8.85
2018-03-18T09:33:31.713Z,9.40
2018-03-18T09:35:59.131Z,8.88
2018-03-18T09:38:26.564Z,9.20
2018-03-18T09:40:53.980Z,9.18
2018-03-18T09:43:21.496Z,9.00
2018-03-18T09:45:48.920Z,9.23
2018-03-18T09:48:16.432Z,9.43
2018-03-18T09:50:43.851Z,9.57
2018-03-18T09:53:11.374Z,9.25
2018-03-18T09:55:38.796Z,9.80
2018-03-18T09:58:06.233Z,9.40
2018-03-18T10:00:33.676Z,9.70
2018-03-18T10:03:01.110Z,9.93
2018-03-18T10:05:28.624Z,9.65
2018-03-18T10:07:56.060Z,9.05
2018-03-18T10:10:24.255Z,9.85
2018-03-18T10:12:52.460Z,9.23
2018-03-18T10:15:19.888Z,9.18
2018-03-18T10:17:47.316Z,9.73
2018-03-18T10:20:14.985Z,9.48
2018-03-18T10:22:42.400Z,9.30
2018-03-18T10:25:09.832Z,9.25
2018-03-18T10:27:37.289Z,9.30
2018-03-18T10:30:04.712Z,9.68
2018-03-18T10:32:32.131Z,9.52
2018-03-18T10:34:59.555Z,8.82
2018-03-18T10:37:27.776Z,9.15
2018-03-18T10:39:55.208Z,9.57
2018-03-18T10:42:22.628Z,9.15
2018-03-18T10:44:50.048Z,9.60
2018-03-18T10:47:18.236Z,9.20
2018-03-18T10:49:46.453Z,16.02
2018-03-18T10:52:13.928Z,9.73
2018-03-18T10:54:41.343Z,10.38
2018-03-18T10:57:08.773Z,8.93
2018-03-18T10:59:36.196Z,10.13
2018-03-18T11:02:05.203Z,9.73
2018-03-18T11:04:32.705Z,8.82
2018-03-18T11:07:00.131Z,9.95
2018-03-18T11:09:27.657Z,8.88
2018-03-18T11:11:55.123Z,9.20
2018-03-18T11:14:22.589Z,9.23
2018-03-18T11:16:50.057Z,8.82
2018-03-18T11:19:17.528Z,8.88
2018-03-18T11:21:44.951Z,9.80
2018-03-18T11:24:12.365Z,9.55
2018-03-18T11:26:39.792Z,9.52
2018-03-18T11:29:07.212Z,8.85
2018-03-18T11:31:34.675Z,9.35
2018-03-18T11:34:02.148Z,9.13
2018-03-18T11:36:29.559Z,7.87
2018-03-18T11:38:56.988Z,8.18
2018-03-18T11:41:24.404Z,7.28
2018-03-18T11:43:51.917Z,6.45
2018-03-18T11:46:19.392Z,8.00
2018-03-18T11:48:46.821Z,7.60
2018-03-18T11:51:15.004Z,8.55
2018-03-18T11:53:42.428Z,8.07
2018-03-18T11:56:09.889Z,7.82
2018-03-18T11:58:37.320Z,7.45
2018-03-18T12:01:05.591Z,7.93
2018-03-18T12:03:33.012Z,7.25
2018-03-18T12:06:00.480Z,7.47
2018-03-18T12:08:39.876Z,7.87
2018-03-18T12:11:07.289Z,6.95
2018-03-18T12:13:34.767Z,7.85
2018-03-18T12:16:02.194Z,7.93
2018-03-18T12:18:29.716Z,6.57
2018-03-18T12:20:57.176Z,7.32
2018-03-18T12:23:24.591Z,7.53
2018-03-18T12:25:52.029Z,7.62
2018-03-18T12:28:19.494Z,7.03
2018-03-18T12:30:46.917Z,7.35
2018-03-18T12:33:14.330Z,7.78
2018-03-18T12:35:41.751Z,6.85
2018-03-18T12:38:09.945Z,7.25
2018-03-18T12:40:38.136Z,7.78
2018-03-18T12:43:18.389Z,7.03
2018-03-18T12:45:45.912Z,6.70
2018-03-18T12:48:13.335Z,7.35
2018-03-18T12:50:40.764Z,6.95
2018-03-18T12:53:08.176Z,7.22
2018-03-18T12:55:36.376Z,6.80
2018-03-18T12:58:04.564Z,7.40
2018-03-18T13:00:32.760Z,6.70
2018-03-18T13:03:00.327Z,6.85
2018-03-18T13:05:28.530Z,6.50
2018-03-18T13:07:55.947Z,6.97
2018-03-18T13:10:23.368Z,6.80
2018-03-18T13:12:50.788Z,6.95
2018-03-18T13:15:18.308Z,6.90
2018-03-18T13:17:45.731Z,6.78
2018-03-18T13:20:13.178Z,6.82
2018-03-18T13:22:40.588Z,6.93
2018-03-18T13:25:08.856Z,6.55
2018-03-18T13:27:36.276Z,7.12
2018-03-18T13:30:03.747Z,20.12
2018-03-18T13:32:31.169Z,9.40
2018-03-18T13:34:58.803Z,8.02
2018-03-18T13:37:26.196Z,7.43
2018-03-18T13:39:53.626Z,8.57
2018-03-18T13:42:21.100Z,7.40
2018-03-18T13:44:48.520Z,8.30
2018-03-18T13:47:15.948Z,8.23
2018-03-18T13:49:43.375Z,8.75
2018-03-18T13:52:11.556Z,9.40
2018-03-18T13:54:39.741Z,8.60
2018-03-18T13:57:07.928Z,7.95
2018-03-18T13:59:36.120Z,8.50
2018-03-18T14:02:04.336Z,7.97
2018-03-18T14:04:31.808Z,8.30
2018-03-18T14:06:59.236Z,8.30
2018-03-18T14:09:26.651Z,8.30
2018-03-18T14:11:54.072Z,7.62
2018-03-18T14:14:22.397Z,8.85
2018-03-18T14:16:49.813Z,8.05
2018-03-18T14:19:17.239Z,7.93
2018-03-18T14:21:44.651Z,7.37
2018-03-18T14:24:12.841Z,8.32
2018-03-18T14:26:41.764Z,8.23
2018-03-18T14:29:10.006Z,7.82
2018-03-18T14:31:37.477Z,7.60
2018-03-18T14:34:04.900Z,7.20
2018-03-18T14:36:33.076Z,7.35
2018-03-18T14:39:01.276Z,6.70
2018-03-18T14:41:29.483Z,6.03
2018-03-18T14:43:56.904Z,6.45
2018-03-18T14:46:24.328Z,6.50
2018-03-18T14:48:51.743Z,6.62
2018-03-18T14:51:19.279Z,6.00
2018-03-18T14:53:46.689Z,6.55
2018-03-18T14:56:14.112Z,6.22
2018-03-18T14:58:41.528Z,5.78
2018-03-18T15:01:09.045Z,6.65
2018-03-18T15:03:36.460Z,6.25
2018-03-18T15:06:03.884Z,5.82
2018-03-18T15:08:31.309Z,7.03
2018-03-18T15:10:59.543Z,8.77
2018-03-18T15:13:26.951Z,7.45
2018-03-18T15:15:54.376Z,7.37
2018-03-18T15:18:21.801Z,7.30
2018-03-18T15:20:49.224Z,6.93
2018-03-18T15:23:16.696Z,6.65
2018-03-18T15:25:44.129Z,6.55
2018-03-18T15:28:12.308Z,6.85
2018-03-18T15:30:40.500Z,7.40
2018-03-18T15:33:08.857Z,7.00
2018-03-18T15:35:36.382Z,7.28
2018-03-18T15:38:03.852Z,6.43
2018-03-18T15:40:31.275Z,6.97
2018-03-18T15:42:58.701Z,7.05
2018-03-18T15:45:26.133Z,6.30
2018-03-18T15:47:54.356Z,6.07
2018-03-18T15:50:24.224Z,6.87
2018-03-18T15:52:51.648Z,6.20
2018-03-18T15:55:19.069Z,6.12
2018-03-18T15:57:46.502Z,6.85
2018-03-18T16:00:13.908Z,6.75
2018-03-18T16:02:41.340Z,6.37
2018-03-18T16:05:08.936Z,6.72
2018-03-18T16:07:36.369Z,6.53
2018-03-18T16:10:03.844Z,5.80
2018-03-18T16:12:31.297Z,7.40
2018-03-18T16:14:58.769Z,6.20
2018-03-18T16:17:26.192Z,5.70
2018-03-18T16:19:53.620Z,6.20
2018-03-18T16:22:21.052Z,6.90
2018-03-18T16:24:49.227Z,6.32
2018-03-18T16:27:17.417Z,5.90
2018-03-18T16:29:57.632Z,7.18
2018-03-18T16:32:25.052Z,10.18
2018-03-18T16:34:53.244Z,9.02
2018-03-18T16:37:21.427Z,8.38
2018-03-18T16:39:49.611Z,12.37
2018-03-18T16:42:17.940Z,13.13
2018-03-18T16:44:45.412Z,18.12
2018-03-18T16:47:12.888Z,22.37
2018-03-18T16:49:40.352Z,13.52
2018-03-18T16:52:07.812Z,18.05
2018-03-18T16:54:35.290Z,13.25
2018-03-18T16:57:02.766Z,10.20
2018-03-18T16:59:30.228Z,15.55
2018-03-18T17:01:57.696Z,20.02
2018-03-18T17:04:25.119Z,19.55
2018-03-18T17:06:52.544Z,12.18
2018-03-18T17:09:19.968Z,10.65
2018-03-18T17:11:48.152Z,6.68
2018-03-18T17:14:15.580Z,6.03
2018-03-18T17:16:42.996Z,5.60
2018-03-18T17:19:11.221Z,6.25
2018-03-18T17:21:38.631Z,5.82
2018-03-18T17:24:06.060Z,5.62
2018-03-18T17:26:33.474Z,5.60
2018-03-18T17:29:00.991Z,5.70
2018-03-18T17:31:28.408Z,6.20
2018-03-18T17:33:55.837Z,4.70
2018-03-18T17:36:23.256Z,5.12
2018-03-18T17:38:50.668Z,4.82
2018-03-18T17:41:18.099Z,4.85
2018-03-18T17:43:45.516Z,5.90
2018-03-18T17:46:24.868Z,5.35
2018-03-18T17:49:04.404Z,5.12
2018-03-18T17:54:52.481Z,4.78
2018-03-18T17:57:20.719Z,5.97
2018-03-18T17:59:48.871Z,5.28
2018-03-18T18:02:16.351Z,5.57
2018-03-18T18:04:43.757Z,5.50
2018-03-18T18:07:11.208Z,4.93
2018-03-18T18:09:38.655Z,5.65
2018-03-18T18:12:06.127Z,5.43
2018-03-18T18:14:33.560Z,5.25
2018-03-18T18:17:01.787Z,5.07
2018-03-18T18:19:29.249Z,5.35
2018-03-18T18:21:56.720Z,5.18
2018-03-18T18:24:24.184Z,5.12
2018-03-18T18:26:51.611Z,5.03
2018-03-18T18:29:19.121Z,4.82
2018-03-18T18:31:46.540Z,5.43
2018-03-18T18:34:13.961Z,5.37
2018-03-18T18:36:41.416Z,4.95
2018-03-18T18:39:09.146Z,5.15
2018-03-18T18:41:36.552Z,5.20
2018-03-18T18:44:04.756Z,5.85
2018-03-18T18:46:32.196Z,5.55
2018-03-18T18:49:00.393Z,4.87
2018-03-18T18:51:27.795Z,5.03
2018-03-18T18:53:55.228Z,6.32
2018-03-18T18:56:23.464Z,5.50
2018-03-18T18:58:50.917Z,5.90
2018-03-18T19:01:18.332Z,4.50
2018-03-18T19:03:45.852Z,6.55
2018-03-18T19:06:13.276Z,9.63
2018-03-18T19:08:40.705Z,6.00
2018-03-18T19:11:08.124Z,5.82
2018-03-18T19:13:36.312Z,4.90
2018-03-18T19:16:04.500Z,5.78
2018-03-18T19:18:32.691Z,5.97
2018-03-18T19:21:00.877Z,5.32
2018-03-18T19:23:28.304Z,5.43
2018-03-18T19:25:55.721Z,5.28
2018-03-18T19:28:24.163Z,5.53
2018-03-18T19:30:51.580Z,7.10
2018-03-18T19:33:19.838Z,5.12
2018-03-18T19:35:47.253Z,5.10
2018-03-18T19:38:14.680Z,4.90
2018-03-18T19:40:42.204Z,4.93
2018-03-18T19:43:09.709Z,4.65
2018-03-18T19:45:37.104Z,5.15
2018-03-18T19:48:04.522Z,5.00
2018-03-18T19:50:31.943Z,4.45
2018-03-18T19:53:00.169Z,4.95
2018-03-18T19:55:27.591Z,5.22
2018-03-18T19:57:55.104Z,4.62
2018-03-18T20:00:22.592Z,4.78
2018-03-18T20:02:50.030Z,5.03
2018-03-18T20:05:17.459Z,3.95
2018-03-18T20:07:44.878Z,4.80
2018-03-18T20:10:12.295Z,5.20
2018-03-18T20:12:39.708Z,4.82
2018-03-18T20:15:07.136Z,5.68
2018-03-18T20:17:34.543Z,5.12
2018-03-18T20:20:02.036Z,5.00
2018-03-18T20:22:29.456Z,4.93
2018-03-18T20:24:56.969Z,4.47
2018-03-18T20:27:24.402Z,4.90
2018-03-18T20:29:51.828Z,4.70
2018-03-18T20:32:19.240Z,4.95
2018-03-18T20:34:47.428Z,4.72
2018-03-18T20:37:14.937Z,4.78
2018-03-18T20:39:42.352Z,4.47
2018-03-18T20:42:09.851Z,4.47
2018-03-18T20:44:38.062Z,4.60
2018-03-18T20:47:05.488Z,8.20
2018-03-18T20:49:32.896Z,6.65
2018-03-18T20:52:00.323Z,7.18
2018-03-18T20:54:27.832Z,7.93
2018-03-18T20:56:55.312Z,10.63
2018-03-18T20:59:22.729Z,7.93
2018-03-18T21:01:50.164Z,5.80
2018-03-18T21:04:17.619Z,4.50
2018-03-18T21:06:45.042Z,4.90
2018-03-18T21:09:12.548Z,5.95
2018-03-18T21:11:40.011Z,5.37
2018-03-18T21:14:07.488Z,5.82
2018-03-18T21:16:34.907Z,4.90
2018-03-18T21:19:02.332Z,5.47
2018-03-18T21:21:29.752Z,4.45
2018-03-18T21:23:57.935Z,5.15
2018-03-18T21:26:25.349Z,4.57
2018-03-18T21:28:52.824Z,4.37
2018-03-18T21:31:20.236Z,5.03
2018-03-18T21:33:47.767Z,5.18
2018-03-18T21:36:15.234Z,5.60
2018-03-18T21:38:42.805Z,4.90
2018-03-18T21:41:10.996Z,4.85
2018-03-18T21:43:38.420Z,5.30
2018-03-18T21:46:05.835Z,4.68
2018-03-18T21:48:33.264Z,5.03
2018-03-18T21:51:01.483Z,4.90
2018-03-18T21:53:28.905Z,4.72
2018-03-18T21:55:56.423Z,4.53
2018-03-18T21:58:24.667Z,4.82
2018-03-18T22:00:52.080Z,5.32
2018-03-18T22:03:19.549Z,5.22
2018-03-18T22:05:47.020Z,4.62
2018-03-18T22:08:14.445Z,5.00
2018-03-18T22:10:41.859Z,5.32
2018-03-18T22:13:09.332Z,5.20
2018-03-18T22:15:36.800Z,4.85
2018-03-18T22:18:04.232Z,4.82
2018-03-18T22:20:32.456Z,5.20
2018-03-18T22:22:59.892Z,4.47
2018-03-18T22:25:28.113Z,5.03
2018-03-18T22:27:55.587Z,4.80
2018-03-18T22:30:23.000Z,5.30
2018-03-18T22:32:50.420Z,4.70
2018-03-18T22:35:17.884Z,4.95
2018-03-18T22:37:45.364Z,4.87
2018-03-18T22:40:12.827Z,4.90
2018-03-18T22:42:40.247Z,5.32
2018-03-18T22:45:07.670Z,5.35
2018-03-18T22:47:35.137Z,5.55
2018-03-18T22:50:02.604Z,5.07
2018-03-18T22:52:30.036Z,4.93
2018-03-18T22:54:57.543Z,5.15
2018-03-18T22:57:24.960Z,4.90
2018-03-18T22:59:52.488Z,5.50
2018-03-18T23:02:19.955Z,6.00
2018-03-18T23:04:47.384Z,5.07
2018-03-18T23:07:14.802Z,5.70
2018-03-18T23:09:42.264Z,5.07
2018-03-18T23:12:09.731Z,5.07
2018-03-18T23:14:37.195Z,5.57
2018-03-18T23:17:04.617Z,5.55
2018-03-18T23:19:32.032Z,5.50
2018-03-18T23:21:59.456Z,5.60
2018-03-18T23:24:26.880Z,5.30
2018-03-18T23:26:54.350Z,5.57
2018-03-18T23:29:21.759Z,5.80
2018-03-18T23:31:49.191Z,5.20
2018-03-18T23:34:16.860Z,5.45
2018-03-18T23:36:44.284Z,5.93
2018-03-18T23:39:11.708Z,5.37
2018-03-18T23:41:39.146Z,5.70
2018-03-18T23:44:07.332Z,5.97
2018-03-18T23:46:35.540Z,5.60
2018-03-18T23:49:02.980Z,5.53
2018-03-18T23:51:30.484Z,5.45
2018-03-18T23:53:57.952Z,5.57
2018-03-18T23:56:25.375Z,5.82
2018-03-18T23:58:52.799Z,5.40
